sensor_id;sensor_type;location;lat;lon;timestamp;P1;durP1;ratioP1;P2;durP2;ratioP2
16407;SDS011;8313;49.894;8.084;2024-03-07T00:01:46;23.20;;;13.30;;
16407;SDS011;8313;49.894;8.084;2024-03-07T00:04:13;26.87;;;14.47;;
16407;SDS011;8313;49.894;8.084;2024-03-07T00:06:39;23.73;;;13.60;;
16407;SDS011;8313;49.894;8.084;2024-03-07T00:09:06;26.80;;;16.20;;
16407;SDS011;8313;49.894;8.084;2024-03-07T00:11:34;18.67;;;11.67;;
16407;SDS011;8313;49.894;8.084;2024-03-07T00:14:00;24.20;;;14.07;;
16407;SDS011;8313;49.894;8.084;2024-03-07T00:16:26;30.80;;;15.00;;
16407;SDS011;8313;49.894;8.084;2024-03-07T00:18:51;25.80;;;13.60;;
16407;SDS011;8313;49.894;8.084;2024-03-07T00:21:17;28.40;;;15.20;;
16407;SDS011;8313;49.894;8.084;2024-03-07T00:23:43;22.97;;;13.17;;
16407;SDS011;8313;49.894;8.084;2024-03-07T00:26:08;26.60;;;14.60;;
16407;SDS011;8313;49.894;8.084;2024-03-07T00:28:34;24.67;;;14.20;;
16407;SDS011;8313;49.894;8.084;2024-03-07T00:31:04;21.83;;;13.77;;
16407;SDS011;8313;49.894;8.084;2024-03-07T00:33:32;26.97;;;14.77;;
16407;SDS011;8313;49.894;8.084;2024-03-07T00:35:58;27.23;;;15.70;;
16407;SDS011;8313;49.894;8.084;2024-03-07T00:38:25;25.10;;;13.63;;
16407;SDS011;8313;49.894;8.084;2024-03-07T00:40:51;34.17;;;15.63;;
16407;SDS011;8313;49.894;8.084;2024-03-07T00:43:16;27.37;;;15.60;;
16407;SDS011;8313;49.894;8.084;2024-03-07T00:45:42;28.40;;;14.53;;
16407;SDS011;8313;49.894;8.084;2024-03-07T00:48:07;25.47;;;14.03;;
16407;SDS011;8313;49.894;8.084;2024-03-07T00:50:34;34.30;;;15.43;;
16407;SDS011;8313;49.894;8.084;2024-03-07T00:53:00;25.50;;;14.50;;
16407;SDS011;8313;49.894;8.084;2024-03-07T00:55:25;27.57;;;14.60;;
16407;SDS011;8313;49.894;8.084;2024-03-07T00:57:51;24.97;;;13.97;;
16407;SDS011;8313;49.894;8.084;2024-03-07T01:00:17;21.60;;;13.47;;
16407;SDS011;8313;49.894;8.084;2024-03-07T01:02:46;23.57;;;13.90;;
16407;SDS011;8313;49.894;8.084;2024-03-07T01:05:12;24.37;;;13.80;;
16407;SDS011;8313;49.894;8.084;2024-03-07T01:07:42;26.00;;;14.53;;
16407;SDS011;8313;49.894;8.084;2024-03-07T01:10:09;25.10;;;13.80;;
16407;SDS011;8313;49.894;8.084;2024-03-07T01:12:35;26.67;;;14.20;;
16407;SDS011;8313;49.894;8.084;2024-03-07T01:15:01;23.70;;;15.40;;
16407;SDS011;8313;49.894;8.084;2024-03-07T01:17:29;25.43;;;14.07;;
16407;SDS011;8313;49.894;8.084;2024-03-07T01:19:55;26.70;;;13.60;;
16407;SDS011;8313;49.894;8.084;2024-03-07T01:22:21;22.07;;;13.13;;
16407;SDS011;8313;49.894;8.084;2024-03-07T01:24:47;24.73;;;14.07;;
16407;SDS011;8313;49.894;8.084;2024-03-07T01:27:13;23.30;;;14.03;;
16407;SDS011;8313;49.894;8.084;2024-03-07T01:29:38;29.97;;;15.57;;
16407;SDS011;8313;49.894;8.084;2024-03-07T01:32:09;24.87;;;14.73;;
16407;SDS011;8313;49.894;8.084;2024-03-07T01:34:36;32.60;;;14.60;;
16407;SDS011;8313;49.894;8.084;2024-03-07T01:37:02;26.23;;;14.40;;
16407;SDS011;8313;49.894;8.084;2024-03-07T01:39:27;28.20;;;15.30;;
16407;SDS011;8313;49.894;8.084;2024-03-07T01:41:53;26.50;;;14.20;;
16407;SDS011;8313;49.894;8.084;2024-03-07T01:44:19;31.17;;;16.13;;
16407;SDS011;8313;49.894;8.084;2024-03-07T01:46:45;23.90;;;13.53;;
16407;SDS011;8313;49.894;8.084;2024-03-07T01:49:10;31.93;;;15.90;;
16407;SDS011;8313;49.894;8.084;2024-03-07T01:51:36;26.67;;;14.10;;
16407;SDS011;8313;49.894;8.084;2024-03-07T01:54:03;28.60;;;16.80;;
16407;SDS011;8313;49.894;8.084;2024-03-07T01:56:30;20.50;;;12.50;;
16407;SDS011;8313;49.894;8.084;2024-03-07T01:58:56;23.50;;;14.60;;
16407;SDS011;8313;49.894;8.084;2024-03-07T02:01:24;28.47;;;14.97;;
16407;SDS011;8313;49.894;8.084;2024-03-07T02:03:49;28.33;;;15.10;;
16407;SDS011;8313;49.894;8.084;2024-03-07T02:06:15;23.87;;;14.60;;
16407;SDS011;8313;49.894;8.084;2024-03-07T02:08:41;24.90;;;14.50;;
16407;SDS011;8313;49.894;8.084;2024-03-07T02:11:06;24.30;;;14.47;;
16407;SDS011;8313;49.894;8.084;2024-03-07T02:13:34;27.70;;;13.30;;
16407;SDS011;8313;49.894;8.084;2024-03-07T02:16:00;26.40;;;15.67;;
16407;SDS011;8313;49.894;8.084;2024-03-07T02:18:26;27.70;;;14.43;;
16407;SDS011;8313;49.894;8.084;2024-03-07T02:20:52;27.17;;;15.63;;
16407;SDS011;8313;49.894;8.084;2024-03-07T02:23:17;35.40;;;16.07;;
16407;SDS011;8313;49.894;8.084;2024-03-07T02:25:43;32.30;;;15.00;;
16407;SDS011;8313;49.894;8.084;2024-03-07T02:28:09;23.20;;;15.20;;
16407;SDS011;8313;49.894;8.084;2024-03-07T02:30:35;24.50;;;13.57;;
16407;SDS011;8313;49.894;8.084;2024-03-07T02:33:01;24.63;;;14.00;;
16407;SDS011;8313;49.894;8.084;2024-03-07T02:35:34;28.33;;;15.80;;
16407;SDS011;8313;49.894;8.084;2024-03-07T02:38:04;26.70;;;15.37;;
16407;SDS011;8313;49.894;8.084;2024-03-07T02:40:30;25.53;;;14.90;;
16407;SDS011;8313;49.894;8.084;2024-03-07T02:42:56;28.60;;;15.83;;
16407;SDS011;8313;49.894;8.084;2024-03-07T02:45:23;30.73;;;15.73;;
16407;SDS011;8313;49.894;8.084;2024-03-07T02:47:49;30.80;;;15.27;;
16407;SDS011;8313;49.894;8.084;2024-03-07T02:50:15;23.83;;;14.30;;
16407;SDS011;8313;49.894;8.084;2024-03-07T02:52:40;25.00;;;14.83;;
16407;SDS011;8313;49.894;8.084;2024-03-07T02:55:06;28.53;;;15.07;;
16407;SDS011;8313;49.894;8.084;2024-03-07T02:57:35;25.80;;;14.80;;
16407;SDS011;8313;49.894;8.084;2024-03-07T03:00:02;23.60;;;14.30;;
16407;SDS011;8313;49.894;8.084;2024-03-07T03:02:28;27.07;;;15.07;;
16407;SDS011;8313;49.894;8.084;2024-03-07T03:04:54;28.87;;;15.87;;
16407;SDS011;8313;49.894;8.084;2024-03-07T03:07:19;26.47;;;14.83;;
16407;SDS011;8313;49.894;8.084;2024-03-07T03:09:45;30.63;;;14.73;;
16407;SDS011;8313;49.894;8.084;2024-03-07T03:12:12;29.73;;;17.00;;
16407;SDS011;8313;49.894;8.084;2024-03-07T03:14:38;26.00;;;15.90;;
16407;SDS011;8313;49.894;8.084;2024-03-07T03:17:04;30.10;;;16.03;;
16407;SDS011;8313;49.894;8.084;2024-03-07T03:19:34;29.97;;;17.00;;
16407;SDS011;8313;49.894;8.084;2024-03-07T03:22:00;30.33;;;16.13;;
16407;SDS011;8313;49.894;8.084;2024-03-07T03:24:25;27.50;;;14.90;;
16407;SDS011;8313;49.894;8.084;2024-03-07T03:26:52;29.20;;;15.40;;
16407;SDS011;8313;49.894;8.084;2024-03-07T03:29:17;28.47;;;15.97;;
16407;SDS011;8313;49.894;8.084;2024-03-07T03:31:43;24.90;;;15.43;;
16407;SDS011;8313;49.894;8.084;2024-03-07T03:34:09;29.93;;;17.30;;
16407;SDS011;8313;49.894;8.084;2024-03-07T03:36:35;30.43;;;16.20;;
16407;SDS011;8313;49.894;8.084;2024-03-07T03:39:00;29.70;;;16.93;;
16407;SDS011;8313;49.894;8.084;2024-03-07T03:41:26;29.37;;;16.30;;
16407;SDS011;8313;49.894;8.084;2024-03-07T03:43:52;32.90;;;17.40;;
16407;SDS011;8313;49.894;8.084;2024-03-07T03:46:18;27.10;;;14.87;;
16407;SDS011;8313;49.894;8.084;2024-03-07T03:48:43;25.97;;;14.60;;
16407;SDS011;8313;49.894;8.084;2024-03-07T03:51:09;28.37;;;16.27;;
16407;SDS011;8313;49.894;8.084;2024-03-07T03:53:38;25.60;;;15.47;;
16407;SDS011;8313;49.894;8.084;2024-03-07T03:56:04;24.40;;;16.07;;
16407;SDS011;8313;49.894;8.084;2024-03-07T03:58:31;29.37;;;14.40;;
16407;SDS011;8313;49.894;8.084;2024-03-07T04:00:57;26.40;;;14.17;;
16407;SDS011;8313;49.894;8.084;2024-03-07T04:03:25;24.53;;;13.73;;
16407;SDS011;8313;49.894;8.084;2024-03-07T04:05:51;22.57;;;13.60;;
16407;SDS011;8313;49.894;8.084;2024-03-07T04:08:17;24.40;;;13.67;;
16407;SDS011;8313;49.894;8.084;2024-03-07T04:10:45;23.37;;;13.40;;
16407;SDS011;8313;49.894;8.084;2024-03-07T04:13:10;26.77;;;12.60;;
16407;SDS011;8313;49.894;8.084;2024-03-07T04:15:36;21.53;;;11.90;;
16407;SDS011;8313;49.894;8.084;2024-03-07T04:18:02;26.47;;;13.37;;
16407;SDS011;8313;49.894;8.084;2024-03-07T04:20:27;22.53;;;12.93;;
16407;SDS011;8313;49.894;8.084;2024-03-07T04:22:53;26.30;;;13.00;;
16407;SDS011;8313;49.894;8.084;2024-03-07T04:25:20;28.30;;;14.70;;
16407;SDS011;8313;49.894;8.084;2024-03-07T04:27:46;26.30;;;14.50;;
16407;SDS011;8313;49.894;8.084;2024-03-07T04:30:14;22.97;;;12.90;;
16407;SDS011;8313;49.894;8.084;2024-03-07T04:32:41;23.47;;;13.37;;
16407;SDS011;8313;49.894;8.084;2024-03-07T04:35:07;18.30;;;12.27;;
16407;SDS011;8313;49.894;8.084;2024-03-07T04:37:35;22.47;;;12.73;;
16407;SDS011;8313;49.894;8.084;2024-03-07T04:40:04;23.50;;;12.30;;
16407;SDS011;8313;49.894;8.084;2024-03-07T04:42:40;20.60;;;11.63;;
16407;SDS011;8313;49.894;8.084;2024-03-07T04:45:15;21.63;;;11.80;;
16407;SDS011;8313;49.894;8.084;2024-03-07T04:47:41;25.70;;;13.70;;
16407;SDS011;8313;49.894;8.084;2024-03-07T04:50:07;19.57;;;11.60;;
16407;SDS011;8313;49.894;8.084;2024-03-07T04:52:36;25.50;;;13.40;;
16407;SDS011;8313;49.894;8.084;2024-03-07T04:55:03;20.00;;;12.63;;
16407;SDS011;8313;49.894;8.084;2024-03-07T04:57:30;23.17;;;11.30;;
16407;SDS011;8313;49.894;8.084;2024-03-07T04:59:56;27.30;;;13.50;;
16407;SDS011;8313;49.894;8.084;2024-03-07T05:02:22;24.10;;;12.87;;
16407;SDS011;8313;49.894;8.084;2024-03-07T05:04:48;26.23;;;14.33;;
16407;SDS011;8313;49.894;8.084;2024-03-07T05:07:15;22.70;;;13.27;;
16407;SDS011;8313;49.894;8.084;2024-03-07T05:09:41;27.30;;;12.90;;
16407;SDS011;8313;49.894;8.084;2024-03-07T05:12:07;18.77;;;11.30;;
16407;SDS011;8313;49.894;8.084;2024-03-07T05:14:33;28.30;;;13.53;;
16407;SDS011;8313;49.894;8.084;2024-03-07T05:16:58;21.70;;;13.63;;
16407;SDS011;8313;49.894;8.084;2024-03-07T05:19:33;23.20;;;13.60;;
16407;SDS011;8313;49.894;8.084;2024-03-07T05:21:59;24.70;;;13.37;;
16407;SDS011;8313;49.894;8.084;2024-03-07T05:24:25;24.57;;;12.07;;
16407;SDS011;8313;49.894;8.084;2024-03-07T05:26:53;26.70;;;14.67;;
16407;SDS011;8313;49.894;8.084;2024-03-07T05:29:19;20.17;;;12.47;;
16407;SDS011;8313;49.894;8.084;2024-03-07T05:31:45;23.60;;;14.17;;
16407;SDS011;8313;49.894;8.084;2024-03-07T05:34:14;24.37;;;13.30;;
16407;SDS011;8313;49.894;8.084;2024-03-07T05:36:40;18.73;;;12.20;;
16407;SDS011;8313;49.894;8.084;2024-03-07T05:39:11;20.83;;;12.40;;
16407;SDS011;8313;49.894;8.084;2024-03-07T05:41:43;20.60;;;12.00;;
16407;SDS011;8313;49.894;8.084;2024-03-07T05:44:10;24.70;;;12.20;;
16407;SDS011;8313;49.894;8.084;2024-03-07T05:46:40;22.67;;;11.50;;
16407;SDS011;8313;49.894;8.084;2024-03-07T05:49:07;19.00;;;11.30;;
16407;SDS011;8313;49.894;8.084;2024-03-07T05:51:33;17.40;;;10.77;;
16407;SDS011;8313;49.894;8.084;2024-03-07T05:53:59;20.77;;;11.20;;
16407;SDS011;8313;49.894;8.084;2024-03-07T05:56:25;20.80;;;11.63;;
16407;SDS011;8313;49.894;8.084;2024-03-07T05:58:51;22.50;;;11.43;;
16407;SDS011;8313;49.894;8.084;2024-03-07T06:01:17;21.10;;;10.07;;
16407;SDS011;8313;49.894;8.084;2024-03-07T06:03:43;20.90;;;12.57;;
16407;SDS011;8313;49.894;8.084;2024-03-07T06:06:10;18.27;;;12.27;;
16407;SDS011;8313;49.894;8.084;2024-03-07T06:08:36;19.70;;;11.80;;
16407;SDS011;8313;49.894;8.084;2024-03-07T06:11:03;20.40;;;11.13;;
16407;SDS011;8313;49.894;8.084;2024-03-07T06:13:29;18.50;;;10.63;;
16407;SDS011;8313;49.894;8.084;2024-03-07T06:15:55;21.53;;;10.97;;
16407;SDS011;8313;49.894;8.084;2024-03-07T06:18:21;21.70;;;11.87;;
16407;SDS011;8313;49.894;8.084;2024-03-07T06:20:46;20.93;;;13.37;;
16407;SDS011;8313;49.894;8.084;2024-03-07T06:23:13;15.07;;;10.83;;
16407;SDS011;8313;49.894;8.084;2024-03-07T06:25:41;20.73;;;10.90;;
16407;SDS011;8313;49.894;8.084;2024-03-07T06:28:15;20.00;;;11.97;;
16407;SDS011;8313;49.894;8.084;2024-03-07T06:30:44;19.70;;;11.70;;
16407;SDS011;8313;49.894;8.084;2024-03-07T06:33:10;23.00;;;12.43;;
16407;SDS011;8313;49.894;8.084;2024-03-07T06:35:37;19.90;;;12.60;;
16407;SDS011;8313;49.894;8.084;2024-03-07T06:38:07;21.17;;;12.03;;
16407;SDS011;8313;49.894;8.084;2024-03-07T06:40:34;23.13;;;12.97;;
16407;SDS011;8313;49.894;8.084;2024-03-07T06:43:00;20.07;;;11.90;;
16407;SDS011;8313;49.894;8.084;2024-03-07T06:45:25;22.20;;;12.43;;
16407;SDS011;8313;49.894;8.084;2024-03-07T06:47:51;25.00;;;13.27;;
16407;SDS011;8313;49.894;8.084;2024-03-07T06:50:19;23.53;;;11.93;;
16407;SDS011;8313;49.894;8.084;2024-03-07T06:52:46;19.07;;;10.53;;
16407;SDS011;8313;49.894;8.084;2024-03-07T06:55:15;22.93;;;12.30;;
16407;SDS011;8313;49.894;8.084;2024-03-07T06:57:42;22.70;;;13.10;;
16407;SDS011;8313;49.894;8.084;2024-03-07T07:00:09;21.77;;;12.47;;
16407;SDS011;8313;49.894;8.084;2024-03-07T07:02:42;24.07;;;12.07;;
16407;SDS011;8313;49.894;8.084;2024-03-07T07:05:10;27.13;;;12.20;;
16407;SDS011;8313;49.894;8.084;2024-03-07T07:07:43;19.40;;;11.17;;
16407;SDS011;8313;49.894;8.084;2024-03-07T07:10:10;22.60;;;12.50;;
16407;SDS011;8313;49.894;8.084;2024-03-07T07:12:48;19.40;;;11.27;;
16407;SDS011;8313;49.894;8.084;2024-03-07T07:15:15;22.53;;;10.93;;
16407;SDS011;8313;49.894;8.084;2024-03-07T07:17:43;22.43;;;10.70;;
16407;SDS011;8313;49.894;8.084;2024-03-07T07:20:12;24.40;;;12.80;;
16407;SDS011;8313;49.894;8.084;2024-03-07T07:22:41;21.90;;;13.20;;
16407;SDS011;8313;49.894;8.084;2024-03-07T07:25:07;21.80;;;12.27;;
16407;SDS011;8313;49.894;8.084;2024-03-07T07:27:43;16.73;;;9.57;;
16407;SDS011;8313;49.894;8.084;2024-03-07T07:30:14;20.93;;;12.07;;
16407;SDS011;8313;49.894;8.084;2024-03-07T07:32:42;20.07;;;11.80;;
16407;SDS011;8313;49.894;8.084;2024-03-07T07:35:09;22.43;;;12.57;;
16407;SDS011;8313;49.894;8.084;2024-03-07T07:37:37;23.13;;;11.93;;
16407;SDS011;8313;49.894;8.084;2024-03-07T07:40:07;19.87;;;11.27;;
16407;SDS011;8313;49.894;8.084;2024-03-07T07:42:35;18.70;;;11.87;;
16407;SDS011;8313;49.894;8.084;2024-03-07T07:45:04;19.10;;;11.00;;
16407;SDS011;8313;49.894;8.084;2024-03-07T07:47:40;21.67;;;11.67;;
16407;SDS011;8313;49.894;8.084;2024-03-07T07:50:10;20.73;;;12.20;;
16407;SDS011;8313;49.894;8.084;2024-03-07T07:53:03;20.90;;;12.00;;
16407;SDS011;8313;49.894;8.084;2024-03-07T07:55:32;19.43;;;11.80;;
16407;SDS011;8313;49.894;8.084;2024-03-07T07:57:58;20.87;;;13.40;;
16407;SDS011;8313;49.894;8.084;2024-03-07T08:00:25;22.10;;;12.37;;
16407;SDS011;8313;49.894;8.084;2024-03-07T08:03:03;21.93;;;11.03;;
16407;SDS011;8313;49.894;8.084;2024-03-07T08:05:31;23.67;;;12.60;;
16407;SDS011;8313;49.894;8.084;2024-03-07T08:07:59;22.73;;;12.97;;
16407;SDS011;8313;49.894;8.084;2024-03-07T08:10:28;20.90;;;11.90;;
16407;SDS011;8313;49.894;8.084;2024-03-07T08:13:03;23.83;;;12.63;;
16407;SDS011;8313;49.894;8.084;2024-03-07T08:15:33;21.87;;;11.10;;
16407;SDS011;8313;49.894;8.084;2024-03-07T08:17:59;25.37;;;12.60;;
16407;SDS011;8313;49.894;8.084;2024-03-07T08:20:26;19.20;;;11.30;;
16407;SDS011;8313;49.894;8.084;2024-03-07T08:22:52;15.57;;;10.13;;
16407;SDS011;8313;49.894;8.084;2024-03-07T08:25:20;20.90;;;11.83;;
16407;SDS011;8313;49.894;8.084;2024-03-07T08:27:51;20.90;;;11.77;;
16407;SDS011;8313;49.894;8.084;2024-03-07T08:30:18;22.23;;;11.83;;
16407;SDS011;8313;49.894;8.084;2024-03-07T08:32:45;21.73;;;11.70;;
16407;SDS011;8313;49.894;8.084;2024-03-07T08:35:12;20.13;;;10.30;;
16407;SDS011;8313;49.894;8.084;2024-03-07T08:37:41;23.93;;;11.70;;
16407;SDS011;8313;49.894;8.084;2024-03-07T08:40:09;23.07;;;12.27;;
16407;SDS011;8313;49.894;8.084;2024-03-07T08:42:36;18.17;;;10.50;;
16407;SDS011;8313;49.894;8.084;2024-03-07T08:45:03;16.57;;;10.00;;
16407;SDS011;8313;49.894;8.084;2024-03-07T08:47:33;16.63;;;9.07;;
16407;SDS011;8313;49.894;8.084;2024-03-07T08:50:00;14.60;;;9.37;;
16407;SDS011;8313;49.894;8.084;2024-03-07T08:52:27;18.43;;;9.93;;
16407;SDS011;8313;49.894;8.084;2024-03-07T08:54:53;23.93;;;11.47;;
16407;SDS011;8313;49.894;8.084;2024-03-07T08:57:19;17.40;;;9.80;;
16407;SDS011;8313;49.894;8.084;2024-03-07T08:59:46;19.00;;;9.77;;
16407;SDS011;8313;49.894;8.084;2024-03-07T09:02:12;16.77;;;10.00;;
16407;SDS011;8313;49.894;8.084;2024-03-07T09:04:38;19.73;;;9.70;;
16407;SDS011;8313;49.894;8.084;2024-03-07T09:07:04;17.80;;;9.77;;
16407;SDS011;8313;49.894;8.084;2024-03-07T09:09:33;16.23;;;9.20;;
16407;SDS011;8313;49.894;8.084;2024-03-07T09:12:00;18.13;;;10.47;;
16407;SDS011;8313;49.894;8.084;2024-03-07T09:14:27;19.67;;;11.10;;
16407;SDS011;8313;49.894;8.084;2024-03-07T09:16:53;19.67;;;10.80;;
16407;SDS011;8313;49.894;8.084;2024-03-07T09:19:19;21.70;;;11.60;;
16407;SDS011;8313;49.894;8.084;2024-03-07T09:21:48;21.43;;;11.07;;
16407;SDS011;8313;49.894;8.084;2024-03-07T09:24:15;19.70;;;11.03;;
16407;SDS011;8313;49.894;8.084;2024-03-07T09:26:41;18.00;;;10.70;;
16407;SDS011;8313;49.894;8.084;2024-03-07T09:29:07;16.43;;;9.83;;
16407;SDS011;8313;49.894;8.084;2024-03-07T09:31:33;15.73;;;8.80;;
16407;SDS011;8313;49.894;8.084;2024-03-07T09:33:58;18.23;;;10.80;;
16407;SDS011;8313;49.894;8.084;2024-03-07T09:36:25;16.40;;;10.00;;
16407;SDS011;8313;49.894;8.084;2024-03-07T09:38:50;14.03;;;8.83;;
16407;SDS011;8313;49.894;8.084;2024-03-07T09:41:16;21.50;;;10.63;;
16407;SDS011;8313;49.894;8.084;2024-03-07T09:43:48;17.63;;;9.30;;
16407;SDS011;8313;49.894;8.084;2024-03-07T09:46:21;18.43;;;10.33;;
16407;SDS011;8313;49.894;8.084;2024-03-07T09:48:49;17.00;;;9.40;;
16407;SDS011;8313;49.894;8.084;2024-03-07T09:51:19;16.60;;;10.40;;
16407;SDS011;8313;49.894;8.084;2024-03-07T09:53:46;15.37;;;9.50;;
16407;SDS011;8313;49.894;8.084;2024-03-07T09:56:17;17.13;;;9.03;;
16407;SDS011;8313;49.894;8.084;2024-03-07T09:58:48;14.43;;;8.70;;
16407;SDS011;8313;49.894;8.084;2024-03-07T10:01:19;19.00;;;9.10;;
16407;SDS011;8313;49.894;8.084;2024-03-07T10:03:46;21.70;;;10.27;;
16407;SDS011;8313;49.894;8.084;2024-03-07T10:06:13;17.70;;;9.73;;
16407;SDS011;8313;49.894;8.084;2024-03-07T10:08:42;18.30;;;11.47;;
16407;SDS011;8313;49.894;8.084;2024-03-07T10:11:09;19.23;;;9.63;;
16407;SDS011;8313;49.894;8.084;2024-03-07T10:13:34;21.37;;;10.93;;
16407;SDS011;8313;49.894;8.084;2024-03-07T10:16:03;18.43;;;9.73;;
16407;SDS011;8313;49.894;8.084;2024-03-07T10:18:31;18.40;;;10.20;;
16407;SDS011;8313;49.894;8.084;2024-03-07T10:20:57;15.07;;;8.90;;
16407;SDS011;8313;49.894;8.084;2024-03-07T10:23:23;20.07;;;10.13;;
16407;SDS011;8313;49.894;8.084;2024-03-07T10:25:51;18.07;;;9.33;;
16407;SDS011;8313;49.894;8.084;2024-03-07T10:28:19;15.27;;;8.83;;
16407;SDS011;8313;49.894;8.084;2024-03-07T10:30:49;19.03;;;9.70;;
16407;SDS011;8313;49.894;8.084;2024-03-07T10:33:15;15.90;;;9.80;;
16407;SDS011;8313;49.894;8.084;2024-03-07T10:35:42;17.27;;;10.40;;
16407;SDS011;8313;49.894;8.084;2024-03-07T10:38:10;17.00;;;9.70;;
16407;SDS011;8313;49.894;8.084;2024-03-07T10:40:37;16.73;;;10.00;;
16407;SDS011;8313;49.894;8.084;2024-03-07T10:43:07;17.13;;;9.80;;
16407;SDS011;8313;49.894;8.084;2024-03-07T10:45:37;16.70;;;9.43;;
16407;SDS011;8313;49.894;8.084;2024-03-07T10:48:11;18.80;;;10.27;;
16407;SDS011;8313;49.894;8.084;2024-03-07T10:58:47;13.33;;;9.30;;
16407;SDS011;8313;49.894;8.084;2024-03-07T11:01:24;14.43;;;9.47;;
16407;SDS011;8313;49.894;8.084;2024-03-07T11:03:51;15.70;;;9.90;;
16407;SDS011;8313;49.894;8.084;2024-03-07T11:06:18;16.13;;;9.30;;
16407;SDS011;8313;49.894;8.084;2024-03-07T11:08:45;19.17;;;10.10;;
16407;SDS011;8313;49.894;8.084;2024-03-07T11:11:12;17.10;;;9.43;;
16407;SDS011;8313;49.894;8.084;2024-03-07T11:13:38;19.87;;;10.23;;
16407;SDS011;8313;49.894;8.084;2024-03-07T11:16:05;15.63;;;9.20;;
16407;SDS011;8313;49.894;8.084;2024-03-07T11:18:32;19.80;;;10.67;;
16407;SDS011;8313;49.894;8.084;2024-03-07T11:26:07;17.03;;;9.47;;
16407;SDS011;8313;49.894;8.084;2024-03-07T11:28:38;18.60;;;10.80;;
16407;SDS011;8313;49.894;8.084;2024-03-07T11:33:36;25.23;;;12.23;;
16407;SDS011;8313;49.894;8.084;2024-03-07T11:36:05;15.80;;;10.10;;
16407;SDS011;8313;49.894;8.084;2024-03-07T11:38:37;18.27;;;10.20;;
16407;SDS011;8313;49.894;8.084;2024-03-07T11:41:18;23.50;;;11.27;;
16407;SDS011;8313;49.894;8.084;2024-03-07T11:43:44;17.93;;;10.47;;
16407;SDS011;8313;49.894;8.084;2024-03-07T11:46:10;20.10;;;10.10;;
16407;SDS011;8313;49.894;8.084;2024-03-07T11:48:41;16.37;;;10.30;;
16407;SDS011;8313;49.894;8.084;2024-03-07T11:51:08;23.17;;;12.47;;
16407;SDS011;8313;49.894;8.084;2024-03-07T11:53:38;19.27;;;9.50;;
16407;SDS011;8313;49.894;8.084;2024-03-07T11:56:04;15.10;;;10.03;;
16407;SDS011;8313;49.894;8.084;2024-03-07T11:58:38;23.43;;;10.80;;
16407;SDS011;8313;49.894;8.084;2024-03-07T12:01:06;16.03;;;9.57;;
16407;SDS011;8313;49.894;8.084;2024-03-07T12:03:36;19.23;;;10.13;;
16407;SDS011;8313;49.894;8.084;2024-03-07T12:06:02;17.73;;;11.03;;
16407;SDS011;8313;49.894;8.084;2024-03-07T12:08:28;16.40;;;10.20;;
16407;SDS011;8313;49.894;8.084;2024-03-07T12:10:54;16.80;;;9.27;;
16407;SDS011;8313;49.894;8.084;2024-03-07T12:13:21;22.70;;;9.87;;
16407;SDS011;8313;49.894;8.084;2024-03-07T12:15:47;16.10;;;10.47;;
16407;SDS011;8313;49.894;8.084;2024-03-07T12:18:16;17.30;;;10.17;;
16407;SDS011;8313;49.894;8.084;2024-03-07T12:20:44;17.10;;;9.77;;
16407;SDS011;8313;49.894;8.084;2024-03-07T12:23:19;13.13;;;8.70;;
16407;SDS011;8313;49.894;8.084;2024-03-07T12:25:47;20.20;;;10.10;;
16407;SDS011;8313;49.894;8.084;2024-03-07T12:28:13;20.33;;;11.03;;
16407;SDS011;8313;49.894;8.084;2024-03-07T12:33:11;22.03;;;9.90;;
16407;SDS011;8313;49.894;8.084;2024-03-07T12:35:39;15.23;;;9.87;;
16407;SDS011;8313;49.894;8.084;2024-03-07T12:38:09;17.50;;;10.10;;
16407;SDS011;8313;49.894;8.084;2024-03-07T12:40:41;21.93;;;10.93;;
16407;SDS011;8313;49.894;8.084;2024-03-07T12:43:14;21.23;;;10.60;;
16407;SDS011;8313;49.894;8.084;2024-03-07T12:45:48;18.17;;;11.70;;
16407;SDS011;8313;49.894;8.084;2024-03-07T12:48:17;14.70;;;9.83;;
16407;SDS011;8313;49.894;8.084;2024-03-07T12:50:47;15.63;;;9.90;;
16407;SDS011;8313;49.894;8.084;2024-03-07T12:53:24;18.20;;;9.97;;
16407;SDS011;8313;49.894;8.084;2024-03-07T12:55:51;18.87;;;10.50;;
16407;SDS011;8313;49.894;8.084;2024-03-07T12:58:17;14.87;;;9.60;;
16407;SDS011;8313;49.894;8.084;2024-03-07T13:00:45;17.77;;;10.13;;
16407;SDS011;8313;49.894;8.084;2024-03-07T13:03:10;21.43;;;10.57;;
16407;SDS011;8313;49.894;8.084;2024-03-07T13:05:39;17.30;;;10.40;;
16407;SDS011;8313;49.894;8.084;2024-03-07T13:08:06;16.97;;;9.67;;
16407;SDS011;8313;49.894;8.084;2024-03-07T13:10:37;17.80;;;11.00;;
16407;SDS011;8313;49.894;8.084;2024-03-07T13:13:09;14.57;;;9.47;;
16407;SDS011;8313;49.894;8.084;2024-03-07T13:15:36;16.87;;;9.27;;
16407;SDS011;8313;49.894;8.084;2024-03-07T13:18:03;15.90;;;10.00;;
16407;SDS011;8313;49.894;8.084;2024-03-07T13:20:30;19.30;;;11.70;;
16407;SDS011;8313;49.894;8.084;2024-03-07T13:22:56;19.80;;;12.27;;
16407;SDS011;8313;49.894;8.084;2024-03-07T13:25:24;24.57;;;12.43;;
16407;SDS011;8313;49.894;8.084;2024-03-07T13:30:24;13.63;;;8.93;;
16407;SDS011;8313;49.894;8.084;2024-03-07T13:32:57;16.60;;;9.77;;
16407;SDS011;8313;49.894;8.084;2024-03-07T13:35:24;17.90;;;10.60;;
16407;SDS011;8313;49.894;8.084;2024-03-07T13:37:51;17.93;;;9.03;;
16407;SDS011;8313;49.894;8.084;2024-03-07T13:40:21;13.80;;;9.00;;
16407;SDS011;8313;49.894;8.084;2024-03-07T13:45:23;12.67;;;8.00;;
16407;SDS011;8313;49.894;8.084;2024-03-07T13:47:51;15.33;;;8.20;;
16407;SDS011;8313;49.894;8.084;2024-03-07T13:50:19;13.77;;;8.03;;
16407;SDS011;8313;49.894;8.084;2024-03-07T13:52:48;12.67;;;9.33;;
16407;SDS011;8313;49.894;8.084;2024-03-07T14:18:50;15.37;;;9.03;;
16407;SDS011;8313;49.894;8.084;2024-03-07T14:22:05;15.60;;;7.60;;
16407;SDS011;8313;49.894;8.084;2024-03-07T14:27:37;11.57;;;8.07;;
16407;SDS011;8313;49.894;8.084;2024-03-07T14:32:51;11.63;;;8.17;;
16407;SDS011;8313;49.894;8.084;2024-03-07T14:35:39;11.70;;;7.90;;
16407;SDS011;8313;49.894;8.084;2024-03-07T14:41:14;14.00;;;8.67;;
16407;SDS011;8313;49.894;8.084;2024-03-07T14:43:41;10.70;;;7.40;;
16407;SDS011;8313;49.894;8.084;2024-03-07T14:46:09;14.87;;;7.67;;
16407;SDS011;8313;49.894;8.084;2024-03-07T14:48:37;10.43;;;6.80;;
16407;SDS011;8313;49.894;8.084;2024-03-07T14:51:05;14.17;;;7.73;;
16407;SDS011;8313;49.894;8.084;2024-03-07T14:53:33;12.73;;;7.70;;
16407;SDS011;8313;49.894;8.084;2024-03-07T14:55:59;14.33;;;8.10;;
16407;SDS011;8313;49.894;8.084;2024-03-07T14:58:25;11.13;;;7.37;;
16407;SDS011;8313;49.894;8.084;2024-03-07T15:00:51;13.27;;;7.50;;
16407;SDS011;8313;49.894;8.084;2024-03-07T15:03:19;12.70;;;8.00;;
16407;SDS011;8313;49.894;8.084;2024-03-07T15:05:45;12.97;;;8.20;;
16407;SDS011;8313;49.894;8.084;2024-03-07T15:08:14;10.93;;;7.17;;
16407;SDS011;8313;49.894;8.084;2024-03-07T15:10:48;14.40;;;8.33;;
16407;SDS011;8313;49.894;8.084;2024-03-07T15:13:20;12.00;;;7.37;;
16407;SDS011;8313;49.894;8.084;2024-03-07T15:15:45;16.97;;;8.17;;
16407;SDS011;8313;49.894;8.084;2024-03-07T15:18:11;14.57;;;7.73;;
16407;SDS011;8313;49.894;8.084;2024-03-07T15:20:37;11.60;;;6.87;;
16407;SDS011;8313;49.894;8.084;2024-03-07T15:23:03;18.23;;;8.93;;
16407;SDS011;8313;49.894;8.084;2024-03-07T15:25:29;12.40;;;8.20;;
16407;SDS011;8313;49.894;8.084;2024-03-07T15:27:56;15.53;;;8.00;;
16407;SDS011;8313;49.894;8.084;2024-03-07T15:30:23;15.60;;;10.03;;
16407;SDS011;8313;49.894;8.084;2024-03-07T15:33:02;21.20;;;12.10;;
16407;SDS011;8313;49.894;8.084;2024-03-07T15:35:29;23.93;;;12.27;;
16407;SDS011;8313;49.894;8.084;2024-03-07T15:37:55;23.97;;;12.60;;